Time;durP1;ratioP1;P1;durP2;ratioP2;P2;SDS_P1;SDS_P2;PMS_P1;PMS_P2;Temp;Humidity;BMP_temperature;BMP_pressure;BME280_temperature;BME280_humidity;BME280_pressure;Samples;Min_cycle;Max_cycle;Signal;HPM_P1;HPM_P2
2022/07/12 00:00:55;;;;;;;5.43;3.97;;;;;;;12.32;100.00;102129.34;7397019;19;20926;-61
2022/07/12 00:03:25;;;;;;;16.17;9.93;;;;;;;12.31;100.00;102127.56;7387556;19;20498;-61
2022/07/12 00:05:54;;;;;;;20.43;11.37;;;;;;;12.28;100.00;102121.41;7391641;19;20416;-62
2022/07/12 00:08:24;;;;;;;7.90;4.33;;;;;;;12.27;100.00;102122.19;7384970;19;20433;-62
2022/07/12 00:10:54;;;;;;;7.77;3.50;;;;;;;12.29;100.00;102120.59;7392552;19;20393;-62
2022/07/12 00:13:26;;;;;;;5.40;3.97;;;;;;;12.31;100.00;102119.78;7385804;19;20415;-61
2022/07/12 00:15:56;;;;;;;5.87;3.87;;;;;;;12.29;100.00;102120.59;7391271;19;20977;-61
2022/07/12 00:18:26;;;;;;;7.80;4.43;;;;;;;12.23;100.00;102115.06;7379365;19;20428;-61
2022/07/12 00:20:56;;;;;;;5.83;4.20;;;;;;;12.19;100.00;102109.66;7392938;19;21091;-62
2022/07/12 00:23:25;;;;;;;6.93;4.60;;;;;;;12.11;100.00;102101.44;7385599;19;20417;-62
2022/07/12 00:25:55;;;;;;;7.80;3.87;;;;;;;12.02;100.00;102102.66;7390713;19;20944;-61
2022/07/12 00:28:27;;;;;;;8.77;6.00;;;;;;;12.04;100.00;102099.31;7386673;19;20503;-61
2022/07/12 00:30:56;;;;;;;8.33;5.10;;;;;;;12.02;100.00;102097.47;7392443;19;20404;-62
2022/07/12 00:33:26;;;;;;;7.07;4.70;;;;;;;12.02;100.00;102091.44;7384989;19;20422;-60
2022/07/12 00:35:56;;;;;;;6.33;4.93;;;;;;;11.99;100.00;102092.13;7390092;19;20420;-62
2022/07/12 00:38:25;;;;;;;5.40;4.20;;;;;;;11.98;100.00;102092.03;7384346;19;20501;-62
2022/07/12 00:40:55;;;;;;;6.60;4.80;;;;;;;11.93;100.00;102084.03;7392265;19;20389;-62
2022/07/12 00:43:27;;;;;;;12.70;8.00;;;;;;;11.98;100.00;102089.47;7384416;19;20421;-61
2022/07/12 00:45:57;;;;;;;6.73;4.83;;;;;;;11.95;100.00;102086.72;7390743;19;20422;-61
2022/07/12 00:48:27;;;;;;;6.87;4.37;;;;;;;11.91;100.00;102085.66;7385341;19;20437;-61
2022/07/12 00:50:56;;;;;;;9.50;4.80;;;;;;;11.89;100.00;102093.31;7391974;19;20395;-61
2022/07/12 00:53:26;;;;;;;6.33;4.57;;;;;;;11.83;100.00;102086.88;7385312;19;20419;-62
2022/07/12 00:55:56;;;;;;;12.07;7.40;;;;;;;11.83;100.00;102087.78;7390014;19;20954;-62
2022/07/12 00:58:29;;;;;;;5.83;5.00;;;;;;;11.84;100.00;102083.50;7384151;19;20439;-62
2022/07/12 01:00:59;;;;;;;10.13;6.37;;;;;;;11.77;100.00;102087.41;7395501;19;20402;-61
2022/07/12 01:03:29;;;;;;;8.97;4.40;;;;;;;11.80;100.00;102092.75;7384058;19;20822;-62
2022/07/12 01:05:59;;;;;;;9.50;4.70;;;;;;;11.72;100.00;102086.25;7389794;19;20424;-62
2022/07/12 01:08:29;;;;;;;7.10;5.57;;;;;;;11.68;100.00;102092.03;7384269;19;20419;-61
2022/07/12 01:10:59;;;;;;;5.63;4.60;;;;;;;11.66;100.00;102096.25;7390361;19;20392;-61
2022/07/12 01:13:31;;;;;;;7.10;5.10;;;;;;;11.73;100.00;102096.69;7378502;19;20433;-61
2022/07/12 01:16:01;;;;;;;7.73;5.43;;;;;;;11.75;100.00;102095.09;7392508;19;20407;-62
2022/07/12 01:18:30;;;;;;;8.73;5.60;;;;;;;11.69;100.00;102091.25;7384827;19;20435;-62
2022/07/12 01:21:00;;;;;;;8.60;6.03;;;;;;;11.63;100.00;102089.19;7394693;19;20391;-61
2022/07/12 01:23:33;;;;;;;9.67;6.47;;;;;;;11.60;100.00;102089.03;7387993;19;20432;-61
2022/07/12 01:26:03;;;;;;;8.30;5.70;;;;;;;11.62;100.00;102095.16;7392693;19;20414;-61
2022/07/12 01:28:33;;;;;;;6.23;4.53;;;;;;;11.63;100.00;102107.28;7388445;19;20427;-62
2022/07/12 01:31:02;;;;;;;11.90;7.47;;;;;;;11.53;100.00;102098.09;7396694;19;20948;-61
2022/07/12 01:33:33;;;;;;;7.80;5.53;;;;;;;11.53;100.00;102092.06;7386133;19;20829;-61
2022/07/12 01:36:03;;;;;;;9.90;5.30;;;;;;;11.53;100.00;102090.34;7395561;19;21013;-61
2022/07/12 01:38:36;;;;;;;11.73;7.07;;;;;;;11.66;100.00;102098.81;7392236;19;20637;-62
2022/07/12 01:41:05;;;;;;;8.77;5.97;;;;;;;11.75;100.00;102094.22;7397986;19;20391;-62
2022/07/12 01:43:35;;;;;;;8.60;6.37;;;;;;;11.69;100.00;102093.84;7390738;19;20953;-61
2022/07/12 01:46:05;;;;;;;9.17;5.87;;;;;;;11.64;100.00;102087.50;7395698;19;20419;-62
2022/07/12 01:48:34;;;;;;;14.90;9.60;;;;;;;11.59;100.00;102097.59;7391637;19;20445;-62
2022/07/12 01:51:04;;;;;;;14.27;7.60;;;;;;;11.52;100.00;102092.84;7400893;19;20392;-61
2022/07/12 01:53:37;;;;;;;15.23;8.50;;;;;;;11.44;100.00;102100.16;7392072;19;20453;-61
2022/07/12 01:56:07;;;;;;;15.00;8.37;;;;;;;11.45;100.00;102095.06;7399941;19;20431;-61
2022/07/12 01:58:37;;;;;;;11.57;7.70;;;;;;;11.50;100.00;102095.34;7390820;19;20441;-61
2022/07/12 02:01:07;;;;;;;12.10;6.90;;;;;;;11.53;100.00;102102.41;7397270;19;20392;-62
2022/07/12 02:03:37;;;;;;;12.33;6.20;;;;;;;11.61;100.00;102101.16;7390127;19;20972;-61
2022/07/12 02:06:07;;;;;;;12.93;6.53;;;;;;;11.56;100.00;102100.88;7395186;19;20514;-61
2022/07/12 02:08:39;;;;;;;10.17;7.10;;;;;;;11.46;100.00;102108.88;7390015;19;20426;-62
2022/07/12 02:11:08;;;;;;;11.17;7.23;;;;;;;11.38;100.00;102107.53;7397186;19;20459;-61
2022/07/12 02:13:38;;;;;;;12.30;7.90;;;;;;;11.36;100.00;102110.03;7391071;19;20419;-62
2022/07/12 02:16:08;;;;;;;11.87;8.03;;;;;;;11.35;100.00;102114.28;7394676;19;20422;-62
2022/07/12 02:18:38;;;;;;;10.83;6.17;;;;;;;11.65;100.00;102118.63;7389438;19;20442;-62
2022/07/12 02:21:08;;;;;;;16.10;7.50;;;;;;;11.41;100.00;102123.22;7396783;19;20408;-62
2022/07/12 02:23:40;;;;;;;11.13;7.50;;;;;;;11.32;100.00;102124.44;7390509;19;20485;-62
2022/07/12 02:26:09;;;;;;;11.40;7.00;;;;;;;11.33;100.00;102115.91;7392260;19;20414;-61
2022/07/12 02:28:39;;;;;;;12.17;7.03;;;;;;;11.21;100.00;102116.06;7390780;19;20416;-61
2022/07/12 02:31:08;;;;;;;9.53;6.80;;;;;;;11.19;100.00;102117.63;7396368;19;20394;-61
2022/07/12 02:33:38;;;;;;;11.20;7.47;;;;;;;11.24;100.00;102115.34;7388860;19;20781;-62
2022/07/12 02:36:08;;;;;;;10.47;7.07;;;;;;;11.22;100.00;102122.09;7393795;19;20419;-62
2022/07/12 02:38:40;;;;;;;11.57;7.20;;;;;;;11.19;100.00;102132.25;7388040;19;21067;-61
2022/07/12 02:41:10;;;;;;;9.60;6.70;;;;;;;11.17;100.00;102137.31;7396052;19;20388;-62
2022/07/12 02:43:39;;;;;;;10.33;7.33;;;;;;;11.15;100.00;102136.34;7389870;19;20415;-62
2022/07/12 02:46:11;;;;;;;10.87;7.10;;;;;;;11.16;100.00;102147.56;7393900;19;20430;-61
2022/07/12 02:48:41;;;;;;;10.30;6.10;;;;;;;11.46;100.00;102145.97;7389463;19;20424;-61
2022/07/12 02:51:12;;;;;;;11.17;6.47;;;;;;;11.46;100.00;102152.81;7395634;19;20406;-61
2022/07/12 02:53:44;;;;;;;13.37;7.23;;;;;;;11.49;100.00;102158.19;7390181;19;20764;-62
2022/07/12 02:56:13;;;;;;;15.53;6.63;;;;;;;11.40;100.00;102158.53;7393371;19;20429;-62
2022/07/12 02:58:43;;;;;;;13.60;7.47;;;;;;;11.44;100.00;102165.63;7388833;19;20435;-63
2022/07/12 03:01:14;;;;;;;9.47;6.40;;;;;;;11.40;100.00;102162.78;7395147;19;20401;-62
2022/07/12 03:03:43;;;;;;;11.07;6.87;;;;;;;11.34;100.00;102160.72;7388484;19;20431;-62
2022/07/12 03:06:13;;;;;;;10.30;6.10;;;;;;;11.31;100.00;102173.44;7393054;19;20427;-61
2022/07/12 03:08:45;;;;;;;10.27;7.30;;;;;;;11.17;100.00;102177.75;7387923;19;20414;-62
2022/07/12 03:11:15;;;;;;;10.70;7.00;;;;;;;11.15;100.00;102188.00;7395068;19;20390;-62
2022/07/12 03:13:44;;;;;;;10.03;6.40;;;;;;;11.21;100.00;102192.66;7389359;19;20418;-62
2022/07/12 03:16:14;;;;;;;9.50;6.70;;;;;;;11.17;100.00;102193.25;7392683;19;20768;-61
2022/07/12 03:18:44;;;;;;;10.50;6.60;;;;;;;11.19;100.00;102187.38;7387242;19;20423;-62
2022/07/12 03:21:13;;;;;;;14.00;7.63;;;;;;;11.29;100.00;102190.56;7394634;19;20381;-61
2022/07/12 03:23:45;;;;;;;11.23;6.53;;;;;;;11.06;100.00;102187.41;7389419;19;20490;-62
2022/07/12 03:26:15;;;;;;;12.50;6.93;;;;;;;11.00;100.00;102189.63;7392330;19;20956;-62
2022/07/12 03:28:44;;;;;;;11.03;5.73;;;;;;;10.93;100.00;102196.97;7387250;19;20971;-62
2022/07/12 03:31:14;;;;;;;9.97;6.20;;;;;;;10.90;100.00;102191.63;7394253;19;20913;-62
2022/07/12 03:33:44;;;;;;;7.93;5.70;;;;;;;10.98;100.00;102199.84;7388331;19;20770;-62
2022/07/12 03:36:13;;;;;;;11.10;5.70;;;;;;;10.97;100.00;102202.34;7391885;19;20784;-62
2022/07/12 03:38:45;;;;;;;10.47;6.73;;;;;;;10.96;100.00;102203.16;7387078;19;20742;-62
2022/07/12 03:41:15;;;;;;;12.33;7.20;;;;;;;10.90;100.00;102201.06;7398223;19;20389;-62
2022/07/12 03:43:45;;;;;;;11.17;6.60;;;;;;;11.08;100.00;102202.22;7386822;19;20770;-60
2022/07/12 03:46:14;;;;;;;11.70;7.00;;;;;;;11.09;100.00;102203.13;7396400;19;20431;-61
2022/07/12 03:48:44;;;;;;;10.93;6.60;;;;;;;10.96;100.00;102201.44;7387171;19;20823;-61
2022/07/12 03:51:13;;;;;;;12.13;7.17;;;;;;;10.88;100.00;102206.13;7398283;19;20956;-62
2022/07/12 03:53:45;;;;;;;12.37;6.73;;;;;;;10.87;100.00;102206.91;7386563;19;20948;-62
2022/07/12 03:57:13;;;;;;;9.43;5.50;;;;;;;10.89;100.00;102205.34;7391732;19;20762;-62
2022/07/12 03:59:05;;;;;;;10.17;6.40;;;;;;;10.97;100.00;102202.34;7392632;19;20434;-62
2022/07/12 04:01:35;;;;;;;12.07;6.57;;;;;;;10.96;100.00;102205.72;7393465;19;20393;-61
2022/07/12 04:04:05;;;;;;;11.00;7.03;;;;;;;10.89;100.00;102205.34;7392405;19;20966;-62
2022/07/12 04:06:34;;;;;;;10.40;6.50;;;;;;;10.98;100.00;102198.97;7391720;19;20420;-61
2022/07/12 04:09:07;;;;;;;12.70;6.70;;;;;;;10.96;100.00;102200.56;7392050;19;20417;-61
2022/07/12 04:11:36;;;;;;;15.13;6.10;;;;;;;10.96;100.00;102200.56;7393511;19;20784;-62
2022/07/12 04:14:06;;;;;;;13.77;7.50;;;;;;;11.04;100.00;102205.41;7391713;19;20479;-61
2022/07/12 04:16:35;;;;;;;12.67;8.13;;;;;;;11.08;100.00;102201.34;7391114;19;20429;-62
2022/07/12 04:19:05;;;;;;;15.90;8.13;;;;;;;11.09;100.00;102205.72;7391792;19;20408;-62
2022/07/12 04:21:35;;;;;;;17.93;8.90;;;;;;;11.12;100.00;102210.19;7393068;19;20914;-61
2022/07/12 04:24:08;;;;;;;12.40;8.20;;;;;;;11.24;100.00;102207.44;7391647;19;20414;-61
2022/07/12 04:26:37;;;;;;;17.87;9.80;;;;;;;11.34;100.00;102207.25;7391320;19;20415;-61
2022/07/12 04:29:06;;;;;;;18.43;9.60;;;;;;;11.35;100.00;102209.88;7392038;19;20434;-62
2022/07/12 04:31:36;;;;;;;16.90;9.10;;;;;;;11.33;100.00;102214.09;7392679;19;20817;-61
2022/07/12 04:34:06;;;;;;;15.93;9.00;;;;;;;11.48;100.00;102211.56;7391316;19;21007;-61
2022/07/12 04:36:35;;;;;;;16.23;8.60;;;;;;;11.54;100.00;102208.44;7390408;19;20509;-62
2022/07/12 04:39:07;;;;;;;26.50;13.13;;;;;;;11.51;100.00;102215.13;7391287;19;20932;-62
2022/07/12 04:41:37;;;;;;;16.70;9.43;;;;;;;11.60;100.00;102213.09;7390617;19;20390;-62
2022/07/12 04:44:07;;;;;;;16.03;8.63;;;;;;;11.83;100.00;102216.16;7390762;19;20486;-60
2022/07/12 04:46:37;;;;;;;19.80;10.37;;;;;;;11.96;100.00;102212.63;7390587;19;20415;-62
2022/07/12 04:49:06;;;;;;;20.20;10.13;;;;;;;11.99;100.00;102212.81;7392399;19;20921;-61
2022/07/12 04:51:36;;;;;;;17.13;8.93;;;;;;;11.97;100.00;102212.72;7399643;19;20385;-60
2022/07/12 04:54:08;;;;;;;17.23;9.43;;;;;;;12.09;100.00;102219.44;7398141;19;20409;-61
2022/07/12 04:56:38;;;;;;;16.77;8.93;;;;;;;12.35;100.00;102222.69;7397094;19;20444;-61
2022/07/12 04:59:07;;;;;;;14.37;8.80;;;;;;;12.67;100.00;102221.03;7398347;19;20498;-58
2022/07/12 05:01:37;;;;;;;497.00;291.30;;;;;;;12.78;100.00;102225.09;7397191;19;20383;-62
2022/07/12 05:04:07;;;;;;;18.93;10.10;;;;;;;12.75;100.00;102230.13;7397937;19;20420;-61
2022/07/12 05:06:36;;;;;;;59.30;33.97;;;;;;;12.95;100.00;102238.13;7396617;19;20414;-60
2022/07/12 05:09:08;;;;;;;20.07;11.00;;;;;;;12.88;100.00;102241.19;7397804;19;20420;-60
2022/07/12 05:11:38;;;;;;;17.77;9.30;;;;;;;12.83;100.00;102240.94;7399176;19;20699;-61
2022/07/12 05:14:07;;;;;;;14.40;9.00;;;;;;;12.94;100.00;102241.53;7397702;19;21013;-61
2022/07/12 05:16:37;;;;;;;14.23;8.93;;;;;;;12.96;100.00;102247.66;7396593;19;20495;-61
2022/07/12 05:19:06;;;;;;;14.27;9.93;;;;;;;13.15;100.00;102256.47;7397768;19;20424;-61
2022/07/12 05:21:36;;;;;;;17.10;10.10;;;;;;;13.11;100.00;102255.41;7396399;19;20390;-60
2022/07/12 05:24:09;;;;;;;20.83;12.67;;;;;;;13.40;100.00;102257.81;7397379;19;20415;-62
2022/07/12 05:26:39;;;;;;;14.70;10.67;;;;;;;13.34;100.00;102260.97;7392435;19;20497;-61
2022/07/12 05:29:08;;;;;;;13.70;9.67;;;;;;;13.37;100.00;102263.72;7396201;19;20750;-62
2022/07/12 05:31:38;;;;;;;15.10;10.23;;;;;;;13.43;100.00;102258.00;7398221;19;20392;-60
2022/07/12 05:34:07;;;;;;;13.10;9.37;;;;;;;13.50;100.00;102263.59;7397095;19;20760;-61
2022/07/12 05:36:37;;;;;;;14.37;8.53;;;;;;;13.51;100.00;102269.69;7395443;19;20432;-61
2022/07/12 05:39:09;;;;;;;17.57;10.70;;;;;;;13.54;100.00;102262.06;7402151;19;20441;-61
2022/07/12 05:41:39;;;;;;;19.83;10.60;;;;;;;13.55;100.00;102265.56;7389803;19;20386;-62
2022/07/12 05:44:09;;;;;;;16.13;10.70;;;;;;;13.63;100.00;102265.16;7396624;19;20926;-61
2022/07/12 05:46:40;;;;;;;16.40;10.67;;;;;;;13.73;100.00;102273.41;7395227;19;21067;-65
2022/07/12 05:49:10;;;;;;;13.87;8.80;;;;;;;13.74;100.00;102264.84;7397639;19;20406;-60
2022/07/12 05:54:24;;;;;;;12.80;8.77;;;;;;;13.77;100.00;102263.31;7396594;19;20690;-61
2022/07/12 05:56:54;;;;;;;13.20;8.47;;;;;;;13.89;100.00;102264.72;7395184;19;20940;-61
2022/07/12 05:59:23;;;;;;;12.60;9.17;;;;;;;13.99;100.00;102263.50;7396904;19;20390;-62
2022/07/12 06:01:53;;;;;;;9.40;6.90;;;;;;;13.99;100.00;102266.09;7386125;19;20395;-62
2022/07/12 06:04:23;;;;;;;10.80;6.67;;;;;;;14.00;100.00;102262.72;7396352;19;20767;-60
2022/07/12 06:06:52;;;;;;;8.00;6.10;;;;;;;14.13;100.00;102254.75;7391493;19;20388;-62
2022/07/12 06:09:24;;;;;;;10.90;6.90;;;;;;;14.30;100.00;102259.88;7396731;19;20398;-61
2022/07/12 06:11:54;;;;;;;10.30;6.80;;;;;;;14.34;100.00;102264.41;7394928;19;20396;-62
2022/07/12 06:14:24;;;;;;;8.80;6.50;;;;;;;14.42;100.00;102268.28;7396108;19;20398;-61
2022/07/12 06:16:54;;;;;;;10.67;6.70;;;;;;;14.53;100.00;102276.63;7390555;19;20386;-62
2022/07/12 06:19:25;;;;;;;11.17;6.70;;;;;;;14.61;100.00;102269.19;7396395;19;20392;-62
2022/07/12 06:21:54;;;;;;;9.77;6.17;;;;;;;14.64;100.00;102274.56;7388505;19;20383;-61
2022/07/12 06:24:26;;;;;;;6.70;5.10;;;;;;;14.70;100.00;102281.75;7395759;19;20389;-62
2022/07/12 06:26:56;;;;;;;15.60;7.43;;;;;;;14.79;100.00;102281.34;7390073;19;20791;-62
2022/07/12 06:29:26;;;;;;;10.50;6.57;;;;;;;15.01;100.00;102290.19;7396180;19;20394;-62
2022/07/12 06:31:56;;;;;;;7.40;4.50;;;;;;;14.93;100.00;102287.22;7389577;19;21022;-62
2022/07/12 06:34:26;;;;;;;5.97;4.20;;;;;;;14.73;100.00;102289.72;7395584;19;20387;-62
2022/07/12 06:36:56;;;;;;;6.23;3.70;;;;;;;14.82;100.00;102286.69;7389763;19;20405;-61
2022/07/12 06:39:28;;;;;;;4.97;3.70;;;;;;;14.92;100.00;102296.72;7395830;19;20387;-62
2022/07/12 06:41:58;;;;;;;8.83;5.23;;;;;;;14.88;100.00;102296.50;7389137;19;20479;-60
2022/07/12 06:44:27;;;;;;;5.60;3.03;;;;;;;14.95;100.00;102296.88;7395029;19;20409;-61
2022/07/12 06:46:57;;;;;;;6.60;3.33;;;;;;;15.05;100.00;102295.59;7388685;19;20394;-60
2022/07/12 06:49:26;;;;;;;7.90;3.40;;;;;;;15.02;100.00;102291.97;7395784;19;20400;-62
2022/07/12 06:51:56;;;;;;;5.90;3.30;;;;;;;15.09;100.00;102294.03;7389635;19;20397;-62
2022/07/12 06:54:28;;;;;;;5.27;2.70;;;;;;;15.28;100.00;102293.19;7394884;19;20394;-62
2022/07/12 06:56:58;;;;;;;3.73;2.63;;;;;;;15.33;100.00;102291.69;7389587;19;20395;-62
2022/07/12 06:59:27;;;;;;;4.80;2.67;;;;;;;15.40;100.00;102295.47;7395526;19;20392;-61
2022/07/12 07:01:57;;;;;;;4.20;2.83;;;;;;;15.28;100.00;102297.50;7387500;19;20744;-61
2022/07/12 07:04:27;;;;;;;7.47;3.13;;;;;;;15.30;100.00;102290.66;7394497;19;20928;-62
2022/07/12 07:06:56;;;;;;;4.50;2.57;;;;;;;15.47;100.00;102297.53;7389384;19;20725;-62
2022/07/12 07:09:29;;;;;;;5.90;3.30;;;;;;;15.53;100.00;102299.53;7395103;19;20466;-61
2022/07/12 07:11:58;;;;;;;4.53;2.80;;;;;;;15.60;100.00;102308.50;7387568;19;20397;-62
2022/07/12 07:14:28;;;;;;;3.23;2.30;;;;;;;15.66;100.00;102300.97;7394701;19;20403;-62
2022/07/12 07:16:57;;;;;;;5.10;2.37;;;;;;;15.84;100.00;102303.50;7388026;19;20409;-62
2022/07/12 07:19:27;;;;;;;4.00;2.67;;;;;;;15.80;100.00;102302.50;7394889;19;20402;-61
2022/07/12 07:21:58;;;;;;;4.50;2.53;;;;;;;15.97;100.00;102297.19;7385166;19;20377;-62
2022/07/12 07:24:32;;;;;;;10.63;5.60;;;;;;;15.99;100.00;102295.53;7394077;19;20412;-61
2022/07/12 07:27:01;;;;;;;3.90;2.50;;;;;;;15.86;100.00;102298.38;7387535;19;20410;-62
2022/07/12 07:32:13;;;;;;;3.93;2.53;;;;;;;16.17;100.00;102299.75;7387991;19;20421;-62
2022/07/12 07:34:43;;;;;;;2.83;2.10;;;;;;;16.20;100.00;102302.47;7393345;19;21289;-62
2022/07/12 07:37:12;;;;;;;4.00;2.13;;;;;;;16.19;100.00;102306.81;7390441;19;20414;-62
2022/07/12 07:39:44;;;;;;;3.97;2.27;;;;;;;16.31;100.00;102310.78;7394353;19;20397;-61
2022/07/12 07:42:14;;;;;;;4.17;2.60;;;;;;;16.40;100.00;102320.72;7386880;19;20419;-62
2022/07/12 07:44:43;;;;;;;4.33;2.10;;;;;;;16.49;100.00;102312.34;7393462;19;20413;-62
2022/07/12 07:47:33;;;;;;;3.83;2.20;;;;;;;16.43;100.00;102316.50;7389676;19;20462;-61
2022/07/12 07:50:02;;;;;;;5.63;2.53;;;;;;;16.41;100.00;102332.91;7393432;19;20699;-62
2022/07/12 07:52:32;;;;;;;4.67;2.27;;;;;;;16.48;100.00;102324.50;7387013;19;20413;-62
2022/07/12 07:55:04;;;;;;;3.50;2.07;;;;;;;16.49;100.00;102333.19;7392993;19;20420;-63
2022/07/12 07:57:34;;;;;;;5.60;1.97;;;;;;;16.54;100.00;102340.41;7388897;19;20965;-62
2022/07/12 08:00:03;;;;;;;4.40;2.10;;;;;;;16.50;100.00;102338.47;7393417;19;20401;-62
2022/07/12 08:02:33;;;;;;;5.80;2.07;;;;;;;16.33;100.00;102327.34;7383912;19;20495;-62
2022/07/12 08:05:03;;;;;;;4.53;2.93;;;;;;;16.41;100.00;102325.94;7392215;19;20402;-61
2022/07/12 08:07:32;;;;;;;5.00;2.53;;;;;;;16.52;100.00;102315.09;7386449;19;20401;-62
2022/07/12 08:10:24;;;;;;;3.70;2.40;;;;;;;16.57;100.00;102311.84;7391932;19;20400;-63
2022/07/12 08:12:54;;;;;;;4.47;2.27;;;;;;;16.57;100.00;102306.66;7388441;19;20507;-62
2022/07/12 08:15:24;;;;;;;4.20;3.03;;;;;;;16.72;100.00;102300.31;7396047;19;20494;-62
2022/07/12 08:17:54;;;;;;;2.97;1.83;;;;;;;16.74;100.00;102314.28;7386029;19;20439;-63
2022/07/12 08:20:24;;;;;;;3.30;2.30;;;;;;;16.85;100.00;102315.63;7391283;19;20397;-63
2022/07/12 08:23:14;;;;;;;3.43;2.13;;;;;;;16.86;100.00;102326.91;7385221;19;20445;-61
2022/07/12 08:25:46;;;;;;;4.60;2.77;;;;;;;16.96;100.00;102330.78;7397816;19;20755;-62
2022/07/12 08:28:16;;;;;;;4.37;2.10;;;;;;;17.07;100.00;102328.66;7394538;19;20947;-63
2022/07/12 08:30:45;;;;;;;3.43;2.33;;;;;;;17.04;100.00;102321.59;7400103;19;20385;-62
2022/07/12 08:33:16;;;;;;;3.67;2.30;;;;;;;17.14;100.00;102323.72;7393204;19;20445;-62
2022/07/12 08:35:46;;;;;;;12.47;7.27;;;;;;;17.24;100.00;102339.75;7397755;19;20421;-62
2022/07/12 08:38:16;;;;;;;6.07;3.63;;;;;;;17.31;100.00;102343.47;7391423;19;20938;-63
2022/07/12 08:40:48;;;;;;;8.80;5.47;;;;;;;17.47;100.00;102347.56;7400140;19;20399;-63
2022/07/12 08:43:18;;;;;;;6.93;4.23;;;;;;;17.53;100.00;102347.81;7393291;19;20425;-63
2022/07/12 08:45:47;;;;;;;5.17;2.87;;;;;;;17.63;100.00;102352.56;7397817;19;20429;-61
2022/07/12 08:48:17;;;;;;;4.40;2.20;;;;;;;17.67;100.00;102349.22;7393106;19;20415;-62
2022/07/12 08:51:02;;;;;;;4.07;2.03;;;;;;;17.73;100.00;102350.31;7400228;19;20393;-61
2022/07/12 08:53:32;;;;;;;19.83;10.70;;;;;;;17.77;100.00;102342.63;7393083;19;20488;-62
2022/07/12 08:56:05;;;;;;;5.47;3.00;;;;;;;17.65;100.00;102360.44;7396859;19;20486;-62
2022/07/12 08:58:34;;;;;;;17.73;10.67;;;;;;;17.55;100.00;102354.00;7391440;19;20427;-62
2022/07/12 09:01:04;;;;;;;16.60;9.33;;;;;;;17.60;100.00;102355.06;7398053;19;20405;-61
2022/07/12 09:03:34;;;;;;;3.10;2.00;;;;;;;17.52;100.00;102353.84;7389425;19;20758;-62
2022/07/12 09:06:07;;;;;;;8.60;4.30;;;;;;;17.46;100.00;102345.78;7396605;19;21005;-62
2022/07/12 09:08:41;;;;;;;2.80;2.00;;;;;;;17.70;100.00;102347.56;7392668;19;20413;-62
2022/07/12 09:11:13;;;;;;;63.20;34.93;;;;;;;17.72;100.00;102349.41;7398994;19;20415;-63
2022/07/12 09:13:51;;;;;;;4.10;2.33;;;;;;;17.78;100.00;102348.72;7391863;19;20428;-63
2022/07/12 09:16:23;;;;;;;6.87;3.50;;;;;;;17.65;100.00;102353.47;7396017;19;20407;-64
2022/07/12 09:18:55;;;;;;;7.80;2.90;;;;;;;17.80;100.00;102357.53;7394990;19;20465;-62
2022/07/12 09:21:26;;;;;;;6.50;4.43;;;;;;;17.57;100.00;102352.31;7398696;19;20399;-63
2022/07/12 09:23:59;;;;;;;5.07;2.60;;;;;;;17.55;100.00;102349.63;7389575;19;20437;-62
2022/07/12 09:26:35;;;;;;;18.73;7.10;;;;;;;17.84;100.00;102333.28;7395653;19;20406;-63
2022/07/12 09:29:09;;;;;;;9.40;5.10;;;;;;;17.97;100.00;102349.41;7391590;19;20485;-63
2022/07/12 09:37:10;;;;;;;12.67;7.40;;;;;;;18.22;100.00;102362.53;7391297;19;20415;-62
2022/07/12 09:39:41;;;;;;;18.73;10.83;;;;;;;18.25;100.00;102368.72;7398132;19;20474;-62
2022/07/12 09:42:14;;;;;;;5.27;3.27;;;;;;;18.43;100.00;102361.53;7394943;19;20424;-63
2022/07/12 09:44:44;;;;;;;4.50;2.60;;;;;;;18.69;100.00;102372.00;7398183;19;20422;-63
2022/07/12 09:47:15;;;;;;;9.97;4.57;;;;;;;18.65;100.00;102375.31;7390675;19;20772;-62
2022/07/12 09:49:45;;;;;;;21.20;10.90;;;;;;;18.89;100.00;102364.81;7397948;19;20402;-63
2022/07/12 09:52:20;;;;;;;2.93;2.10;;;;;;;19.01;100.00;102376.50;7388241;19;20493;-62
2022/07/12 09:54:52;;;;;;;15.70;7.43;;;;;;;19.17;100.00;102383.13;7396554;19;20395;-63
2022/07/12 09:57:28;;;;;;;13.63;6.90;;;;;;;19.02;100.00;102397.50;7390955;19;21049;-63
2022/07/12 09:59:59;;;;;;;54.20;25.70;;;;;;;18.97;100.00;102383.34;7397279;19;20920;-63
2022/07/12 10:02:29;;;;;;;39.87;15.00;;;;;;;19.10;100.00;102381.16;7390344;19;20419;-62
2022/07/12 10:05:04;;;;;;;15.03;8.30;;;;;;;19.21;100.00;102390.25;7395936;19;20458;-62
2022/07/12 10:07:34;;;;;;;3.30;1.83;;;;;;;19.09;100.00;102387.25;7392613;19;20422;-63
2022/07/12 10:10:04;;;;;;;3.00;1.77;;;;;;;19.24;100.00;102376.38;7395614;19;20410;-62
2022/07/12 10:12:36;;;;;;;13.80;8.63;;;;;;;19.42;100.00;102383.91;7389806;19;20825;-63
2022/07/12 10:15:10;;;;;;;3.27;1.90;;;;;;;19.58;100.00;102402.72;7394746;19;20425;-63
2022/07/12 10:17:40;;;;;;;15.73;8.80;;;;;;;19.29;100.00;102441.09;7391680;19;20443;-62
2022/07/12 10:20:19;;;;;;;7.37;3.93;;;;;;;19.73;100.00;102429.34;7401348;19;20394;-60
2022/07/12 10:22:49;;;;;;;26.40;16.17;;;;;;;20.22;100.00;102416.84;7389216;19;20521;-63
2022/07/12 10:25:32;;;;;;;8.10;5.20;;;;;;;20.19;100.00;102436.81;7394690;19;20479;-63
2022/07/12 10:28:05;;;;;;;25.33;8.70;;;;;;;20.19;100.00;102432.47;7389284;19;20415;-62
2022/07/12 10:30:43;;;;;;;3.20;1.70;;;;;;;20.26;100.00;102422.16;7400285;19;20406;-63
2022/07/12 10:33:20;;;;;;;37.33;15.10;;;;;;;20.55;100.00;102415.06;7388855;19;20427;-63
2022/07/12 10:36:05;;;;;;;24.70;9.20;;;;;;;20.51;100.00;102419.34;7393954;19;20395;-62
2022/07/12 10:38:42;;;;;;;12.83;5.73;;;;;;;20.65;100.00;102437.19;7389474;19;20474;-63
2022/07/12 10:41:21;;;;;;;5.27;2.67;;;;;;;20.62;100.00;102432.75;7396066;19;20383;-62
2022/07/12 10:44:08;;;;;;;17.77;8.13;;;;;;;20.64;100.00;102415.34;7388541;19;20953;-62
2022/07/12 10:46:38;;;;;;;4.13;2.00;;;;;;;20.58;100.00;102417.78;7391476;19;20407;-64
2022/07/12 10:49:26;;;;;;;2.43;1.50;;;;;;;20.69;100.00;102402.34;7394962;19;20478;-62
2022/07/12 10:52:25;;;;;;;6.60;3.70;;;;;;;20.62;100.00;102405.66;7390628;19;20387;-62
2022/07/12 10:55:19;;;;;;;33.03;19.13;;;;;;;20.75;100.00;102406.84;7393419;19;20431;-63
2022/07/12 10:57:54;;;;;;;7.97;3.90;;;;;;;20.89;100.00;102389.78;7388112;19;20797;-62
2022/07/12 11:00:27;;;;;;;2.60;1.50;;;;;;;21.18;100.00;102379.06;7395172;19;20383;-63
2022/07/12 11:02:56;;;;;;;3.43;2.00;;;;;;;21.19;100.00;102395.72;7388389;19;20973;-62
2022/07/12 11:05:29;;;;;;;5.10;2.17;;;;;;;21.23;100.00;102423.78;7393467;19;20415;-63
2022/07/12 11:07:59;;;;;;;5.37;3.90;;;;;;;21.31;100.00;102423.97;7390502;19;20431;-62
2022/07/12 11:10:28;;;;;;;3.40;1.70;;;;;;;21.51;100.00;102407.78;7394596;19;20394;-63
2022/07/12 11:12:58;;;;;;;3.70;1.90;;;;;;;21.67;100.00;102394.16;7389097;19;20419;-63
2022/07/12 11:15:30;;;;;;;5.50;2.37;;;;;;;21.74;100.00;102399.56;7395165;19;20448;-62
2022/07/12 11:18:00;;;;;;;3.90;1.93;;;;;;;21.84;100.00;102393.66;7389907;19;20446;-63
2022/07/12 11:20:31;;;;;;;4.50;3.03;;;;;;;21.99;100.00;102406.19;7394802;19;20758;-62
2022/07/12 11:23:00;;;;;;;6.70;2.30;;;;;;;22.08;100.00;102393.25;7388279;19;20441;-62
2022/07/12 11:25:30;;;;;;;5.37;2.40;;;;;;;22.16;100.00;102396.03;7392976;19;20935;-63
2022/07/12 11:28:00;;;;;;;6.27;3.60;;;;;;;22.09;100.00;102395.03;7384809;19;20419;-62
2022/07/12 11:30:32;;;;;;;5.73;2.30;;;;;;;21.93;100.00;102406.97;7394116;19;20754;-63
2022/07/12 11:33:01;;;;;;;5.97;2.70;;;;;;;21.54;100.00;102410.50;7388300;19;20415;-62
2022/07/12 11:35:32;;;;;;;3.47;2.37;;;;;;;21.38;100.00;102394.38;7392456;19;20479;-63
2022/07/12 11:38:02;;;;;;;5.50;2.90;;;;;;;21.71;100.00;102382.91;7388013;19;20411;-63
2022/07/12 11:40:33;;;;;;;3.80;2.17;;;;;;;21.59;100.00;102387.84;7393684;19;20387;-63